sensor_id;sensor_type;location;lat;lon;timestamp;P1;durP1;ratioP1;P2;durP2;ratioP2
21474;SDS011;10899;53.576;9.960;2022-09-21T00:01:44;6.88;;;3.40;;
21474;SDS011;10899;53.576;9.960;2022-09-21T00:04:10;6.80;;;3.65;;
21474;SDS011;10899;53.576;9.960;2022-09-21T00:06:37;4.88;;;3.17;;
21474;SDS011;10899;53.576;9.960;2022-09-21T00:09:04;5.18;;;3.08;;
21474;SDS011;10899;53.576;9.960;2022-09-21T00:11:33;4.88;;;2.90;;
21474;SDS011;10899;53.576;9.960;2022-09-21T00:14:02;5.93;;;2.90;;
21474;SDS011;10899;53.576;9.960;2022-09-21T00:16:31;4.53;;;2.80;;
21474;SDS011;10899;53.576;9.960;2022-09-21T00:18:58;5.43;;;2.97;;
21474;SDS011;10899;53.576;9.960;2022-09-21T00:21:25;7.18;;;3.10;;
21474;SDS011;10899;53.576;9.960;2022-09-21T00:23:52;4.03;;;2.53;;
21474;SDS011;10899;53.576;9.960;2022-09-21T00:26:20;6.00;;;2.88;;
21474;SDS011;10899;53.576;9.960;2022-09-21T00:28:50;3.67;;;2.75;;
21474;SDS011;10899;53.576;9.960;2022-09-21T00:31:18;3.72;;;2.38;;
21474;SDS011;10899;53.576;9.960;2022-09-21T00:33:45;5.65;;;2.80;;
21474;SDS011;10899;53.576;9.960;2022-09-21T00:36:13;3.97;;;2.55;;
21474;SDS011;10899;53.576;9.960;2022-09-21T00:38:50;3.30;;;2.58;;
21474;SDS011;10899;53.576;9.960;2022-09-21T00:41:17;4.18;;;2.88;;
21474;SDS011;10899;53.576;9.960;2022-09-21T00:43:48;3.25;;;2.50;;
21474;SDS011;10899;53.576;9.960;2022-09-21T00:46:30;8.98;;;3.17;;
21474;SDS011;10899;53.576;9.960;2022-09-21T00:48:56;8.40;;;4.10;;
21474;SDS011;10899;53.576;9.960;2022-09-21T00:51:23;9.25;;;3.55;;
21474;SDS011;10899;53.576;9.960;2022-09-21T00:53:51;8.38;;;3.20;;
21474;SDS011;10899;53.576;9.960;2022-09-21T00:56:19;5.07;;;3.22;;
21474;SDS011;10899;53.576;9.960;2022-09-21T00:58:47;5.80;;;3.40;;
21474;SDS011;10899;53.576;9.960;2022-09-21T01:01:16;5.25;;;2.75;;
21474;SDS011;10899;53.576;9.960;2022-09-21T01:03:44;6.00;;;2.85;;
21474;SDS011;10899;53.576;9.960;2022-09-21T01:06:12;5.30;;;2.90;;
21474;SDS011;10899;53.576;9.960;2022-09-21T01:08:39;5.95;;;2.97;;
21474;SDS011;10899;53.576;9.960;2022-09-21T01:13:49;6.38;;;3.00;;
21474;SDS011;10899;53.576;9.960;2022-09-21T01:16:21;8.10;;;2.83;;
21474;SDS011;10899;53.576;9.960;2022-09-21T01:18:55;8.77;;;3.25;;
21474;SDS011;10899;53.576;9.960;2022-09-21T01:21:33;7.85;;;2.80;;
21474;SDS011;10899;53.576;9.960;2022-09-21T01:29:27;4.45;;;2.75;;
21474;SDS011;10899;53.576;9.960;2022-09-21T01:32:01;8.48;;;3.15;;
21474;SDS011;10899;53.576;9.960;2022-09-21T01:36:57;5.60;;;2.88;;
21474;SDS011;10899;53.576;9.960;2022-09-21T01:39:25;5.18;;;2.38;;
21474;SDS011;10899;53.576;9.960;2022-09-21T01:41:53;4.55;;;2.30;;
21474;SDS011;10899;53.576;9.960;2022-09-21T01:44:22;6.63;;;2.35;;
21474;SDS011;10899;53.576;9.960;2022-09-21T01:46:50;6.25;;;2.72;;
21474;SDS011;10899;53.576;9.960;2022-09-21T01:49:19;6.22;;;2.28;;
21474;SDS011;10899;53.576;9.960;2022-09-21T01:51:51;6.75;;;2.60;;
21474;SDS011;10899;53.576;9.960;2022-09-21T01:54:29;6.53;;;2.35;;
21474;SDS011;10899;53.576;9.960;2022-09-21T01:57:07;5.45;;;2.38;;
21474;SDS011;10899;53.576;9.960;2022-09-21T01:59:43;5.82;;;2.38;;
21474;SDS011;10899;53.576;9.960;2022-09-21T02:03:00;8.10;;;2.35;;
21474;SDS011;10899;53.576;9.960;2022-09-21T02:05:00;8.23;;;2.70;;
21474;SDS011;10899;53.576;9.960;2022-09-21T02:07:28;9.27;;;3.45;;
21474;SDS011;10899;53.576;9.960;2022-09-21T02:09:54;9.13;;;2.63;;
21474;SDS011;10899;53.576;9.960;2022-09-21T02:12:21;7.80;;;2.63;;
21474;SDS011;10899;53.576;9.960;2022-09-21T02:14:48;6.32;;;2.67;;
21474;SDS011;10899;53.576;9.960;2022-09-21T02:25:15;10.93;;;2.70;;
21474;SDS011;10899;53.576;9.960;2022-09-21T02:27:52;6.78;;;2.47;;
21474;SDS011;10899;53.576;9.960;2022-09-21T02:30:20;4.50;;;2.35;;
21474;SDS011;10899;53.576;9.960;2022-09-21T02:32:48;8.52;;;3.05;;
21474;SDS011;10899;53.576;9.960;2022-09-21T02:35:30;6.65;;;2.40;;
21474;SDS011;10899;53.576;9.960;2022-09-21T02:43:14;12.75;;;2.92;;
21474;SDS011;10899;53.576;9.960;2022-09-21T02:48:15;7.53;;;2.70;;
21474;SDS011;10899;53.576;9.960;2022-09-21T02:50:45;7.95;;;2.53;;
21474;SDS011;10899;53.576;9.960;2022-09-21T02:53:14;6.78;;;2.65;;
21474;SDS011;10899;53.576;9.960;2022-09-21T02:55:42;7.03;;;2.80;;
21474;SDS011;10899;53.576;9.960;2022-09-21T02:58:11;7.43;;;2.40;;
21474;SDS011;10899;53.576;9.960;2022-09-21T03:00:39;5.38;;;2.60;;
21474;SDS011;10899;53.576;9.960;2022-09-21T03:03:19;7.70;;;2.70;;
21474;SDS011;10899;53.576;9.960;2022-09-21T03:05:46;6.63;;;2.40;;
21474;SDS011;10899;53.576;9.960;2022-09-21T03:08:14;4.75;;;2.28;;
21474;SDS011;10899;53.576;9.960;2022-09-21T03:10:40;3.85;;;2.17;;
21474;SDS011;10899;53.576;9.960;2022-09-21T03:13:07;7.90;;;2.55;;
21474;SDS011;10899;53.576;9.960;2022-09-21T03:15:34;5.72;;;2.17;;
21474;SDS011;10899;53.576;9.960;2022-09-21T03:18:01;7.22;;;2.80;;
21474;SDS011;10899;53.576;9.960;2022-09-21T03:20:30;6.43;;;2.30;;
21474;SDS011;10899;53.576;9.960;2022-09-21T03:22:57;5.60;;;1.90;;
21474;SDS011;10899;53.576;9.960;2022-09-21T03:25:24;5.70;;;2.15;;
21474;SDS011;10899;53.576;9.960;2022-09-21T03:27:51;4.28;;;2.50;;
21474;SDS011;10899;53.576;9.960;2022-09-21T03:30:21;6.05;;;2.38;;
21474;SDS011;10899;53.576;9.960;2022-09-21T03:32:48;4.15;;;2.10;;
21474;SDS011;10899;53.576;9.960;2022-09-21T03:35:15;4.95;;;2.28;;
21474;SDS011;10899;53.576;9.960;2022-09-21T03:37:42;4.18;;;2.10;;
21474;SDS011;10899;53.576;9.960;2022-09-21T03:40:09;4.72;;;2.03;;
21474;SDS011;10899;53.576;9.960;2022-09-21T03:42:37;4.15;;;1.90;;
21474;SDS011;10899;53.576;9.960;2022-09-21T03:45:04;4.60;;;2.40;;
21474;SDS011;10899;53.576;9.960;2022-09-21T03:47:31;5.00;;;2.78;;
21474;SDS011;10899;53.576;9.960;2022-09-21T03:49:57;3.40;;;2.03;;
21474;SDS011;10899;53.576;9.960;2022-09-21T03:52:24;3.97;;;1.70;;
21474;SDS011;10899;53.576;9.960;2022-09-21T03:54:50;4.35;;;1.95;;
21474;SDS011;10899;53.576;9.960;2022-09-21T03:57:17;5.35;;;2.00;;
21474;SDS011;10899;53.576;9.960;2022-09-21T03:59:44;4.32;;;1.80;;
21474;SDS011;10899;53.576;9.960;2022-09-21T04:02:10;4.93;;;2.00;;
21474;SDS011;10899;53.576;9.960;2022-09-21T04:04:37;4.68;;;1.90;;
21474;SDS011;10899;53.576;9.960;2022-09-21T04:07:03;3.78;;;1.80;;
21474;SDS011;10899;53.576;9.960;2022-09-21T04:09:30;4.88;;;2.13;;
21474;SDS011;10899;53.576;9.960;2022-09-21T04:11:56;3.40;;;1.90;;
21474;SDS011;10899;53.576;9.960;2022-09-21T04:14:23;4.53;;;1.90;;
21474;SDS011;10899;53.576;9.960;2022-09-21T04:16:50;3.22;;;1.85;;
21474;SDS011;10899;53.576;9.960;2022-09-21T04:19:17;5.85;;;2.00;;
21474;SDS011;10899;53.576;9.960;2022-09-21T04:21:43;3.45;;;2.00;;
21474;SDS011;10899;53.576;9.960;2022-09-21T04:24:10;5.05;;;1.70;;
21474;SDS011;10899;53.576;9.960;2022-09-21T04:26:36;6.32;;;2.10;;
21474;SDS011;10899;53.576;9.960;2022-09-21T04:29:05;5.82;;;2.15;;
21474;SDS011;10899;53.576;9.960;2022-09-21T04:31:31;3.78;;;1.90;;
21474;SDS011;10899;53.576;9.960;2022-09-21T04:33:58;4.22;;;1.85;;
21474;SDS011;10899;53.576;9.960;2022-09-21T04:36:26;3.38;;;1.90;;
21474;SDS011;10899;53.576;9.960;2022-09-21T04:38:53;3.75;;;1.90;;
21474;SDS011;10899;53.576;9.960;2022-09-21T04:41:20;7.00;;;2.10;;
21474;SDS011;10899;53.576;9.960;2022-09-21T04:43:47;3.35;;;1.70;;
21474;SDS011;10899;53.576;9.960;2022-09-21T04:46:14;5.38;;;1.88;;
21474;SDS011;10899;53.576;9.960;2022-09-21T04:48:41;6.70;;;2.10;;
21474;SDS011;10899;53.576;9.960;2022-09-21T04:51:09;5.15;;;1.77;;
21474;SDS011;10899;53.576;9.960;2022-09-21T04:53:37;6.50;;;1.77;;
21474;SDS011;10899;53.576;9.960;2022-09-21T04:56:04;5.20;;;1.80;;
21474;SDS011;10899;53.576;9.960;2022-09-21T04:58:31;4.28;;;1.95;;
21474;SDS011;10899;53.576;9.960;2022-09-21T05:00:58;3.30;;;1.52;;
21474;SDS011;10899;53.576;9.960;2022-09-21T05:03:25;5.15;;;1.80;;
21474;SDS011;10899;53.576;9.960;2022-09-21T05:05:52;6.07;;;1.63;;
21474;SDS011;10899;53.576;9.960;2022-09-21T05:08:19;6.82;;;1.70;;
21474;SDS011;10899;53.576;9.960;2022-09-21T05:11:05;2.97;;;1.80;;
21474;SDS011;10899;53.576;9.960;2022-09-21T05:13:31;4.40;;;1.92;;
21474;SDS011;10899;53.576;9.960;2022-09-21T05:15:58;4.95;;;1.90;;
21474;SDS011;10899;53.576;9.960;2022-09-21T05:18:24;3.15;;;1.52;;
21474;SDS011;10899;53.576;9.960;2022-09-21T05:20:58;3.83;;;1.70;;
21474;SDS011;10899;53.576;9.960;2022-09-21T05:23:24;2.65;;;1.60;;
21474;SDS011;10899;53.576;9.960;2022-09-21T05:25:54;3.50;;;1.67;;
21474;SDS011;10899;53.576;9.960;2022-09-21T05:28:21;3.53;;;1.67;;
21474;SDS011;10899;53.576;9.960;2022-09-21T05:30:51;3.65;;;1.58;;
21474;SDS011;10899;53.576;9.960;2022-09-21T05:33:19;3.88;;;1.80;;
21474;SDS011;10899;53.576;9.960;2022-09-21T05:38:17;5.22;;;1.70;;
21474;SDS011;10899;53.576;9.960;2022-09-21T05:40:44;3.15;;;1.48;;
21474;SDS011;10899;53.576;9.960;2022-09-21T05:43:15;3.90;;;1.85;;
21474;SDS011;10899;53.576;9.960;2022-09-21T05:45:45;3.63;;;1.85;;
21474;SDS011;10899;53.576;9.960;2022-09-21T05:50:40;3.22;;;1.50;;
21474;SDS011;10899;53.576;9.960;2022-09-21T05:55:54;3.35;;;1.58;;
21474;SDS011;10899;53.576;9.960;2022-09-21T05:58:25;2.88;;;1.40;;
21474;SDS011;10899;53.576;9.960;2022-09-21T06:00:57;4.35;;;1.50;;
21474;SDS011;10899;53.576;9.960;2022-09-21T06:03:27;2.63;;;1.60;;
21474;SDS011;10899;53.576;9.960;2022-09-21T06:05:54;3.75;;;1.65;;
21474;SDS011;10899;53.576;9.960;2022-09-21T06:08:21;4.63;;;1.50;;
21474;SDS011;10899;53.576;9.960;2022-09-21T06:10:48;3.30;;;1.40;;
21474;SDS011;10899;53.576;9.960;2022-09-21T06:13:14;3.63;;;1.50;;
21474;SDS011;10899;53.576;9.960;2022-09-21T06:15:41;3.40;;;1.42;;
21474;SDS011;10899;53.576;9.960;2022-09-21T06:18:08;3.58;;;1.67;;
21474;SDS011;10899;53.576;9.960;2022-09-21T06:20:35;5.25;;;1.67;;
21474;SDS011;10899;53.576;9.960;2022-09-21T06:23:05;2.72;;;1.55;;
21474;SDS011;10899;53.576;9.960;2022-09-21T06:25:32;3.38;;;1.60;;
21474;SDS011;10899;53.576;9.960;2022-09-21T06:28:03;2.72;;;1.38;;
21474;SDS011;10899;53.576;9.960;2022-09-21T06:30:30;4.97;;;1.55;;
21474;SDS011;10899;53.576;9.960;2022-09-21T06:32:59;2.35;;;1.40;;
21474;SDS011;10899;53.576;9.960;2022-09-21T06:35:26;3.80;;;1.50;;
21474;SDS011;10899;53.576;9.960;2022-09-21T06:37:56;6.38;;;1.60;;
21474;SDS011;10899;53.576;9.960;2022-09-21T06:40:23;2.15;;;1.40;;
21474;SDS011;10899;53.576;9.960;2022-09-21T06:42:51;2.58;;;1.50;;
21474;SDS011;10899;53.576;9.960;2022-09-21T06:45:20;5.03;;;1.75;;
21474;SDS011;10899;53.576;9.960;2022-09-21T06:47:46;2.92;;;1.50;;
21474;SDS011;10899;53.576;9.960;2022-09-21T06:50:13;3.17;;;1.83;;
21474;SDS011;10899;53.576;9.960;2022-09-21T06:52:40;1.58;;;1.30;;
21474;SDS011;10899;53.576;9.960;2022-09-21T06:55:07;2.35;;;1.20;;
21474;SDS011;10899;53.576;9.960;2022-09-21T06:57:34;3.03;;;1.42;;
21474;SDS011;10899;53.576;9.960;2022-09-21T07:00:05;4.40;;;1.63;;
21474;SDS011;10899;53.576;9.960;2022-09-21T07:02:32;3.17;;;1.40;;
21474;SDS011;10899;53.576;9.960;2022-09-21T07:04:59;3.15;;;1.35;;
21474;SDS011;10899;53.576;9.960;2022-09-21T07:07:26;4.70;;;1.42;;
21474;SDS011;10899;53.576;9.960;2022-09-21T07:09:56;3.58;;;1.40;;
21474;SDS011;10899;53.576;9.960;2022-09-21T07:12:27;3.17;;;1.50;;
21474;SDS011;10899;53.576;9.960;2022-09-21T07:14:54;2.38;;;1.17;;
21474;SDS011;10899;53.576;9.960;2022-09-21T07:17:20;2.38;;;1.20;;
21474;SDS011;10899;53.576;9.960;2022-09-21T07:19:47;4.13;;;1.50;;
21474;SDS011;10899;53.576;9.960;2022-09-21T07:22:14;2.55;;;1.50;;
21474;SDS011;10899;53.576;9.960;2022-09-21T07:24:41;2.78;;;1.40;;
21474;SDS011;10899;53.576;9.960;2022-09-21T07:27:07;2.33;;;1.33;;
21474;SDS011;10899;53.576;9.960;2022-09-21T07:29:34;1.73;;;1.10;;
21474;SDS011;10899;53.576;9.960;2022-09-21T07:32:00;1.85;;;1.10;;
21474;SDS011;10899;53.576;9.960;2022-09-21T07:34:27;2.75;;;1.05;;
21474;SDS011;10899;53.576;9.960;2022-09-21T07:36:54;2.72;;;1.38;;
21474;SDS011;10899;53.576;9.960;2022-09-21T07:39:20;3.05;;;1.25;;
21474;SDS011;10899;53.576;9.960;2022-09-21T07:41:47;2.58;;;1.42;;
21474;SDS011;10899;53.576;9.960;2022-09-21T07:44:13;2.58;;;1.33;;
21474;SDS011;10899;53.576;9.960;2022-09-21T07:46:40;2.17;;;1.05;;
21474;SDS011;10899;53.576;9.960;2022-09-21T07:49:06;2.03;;;1.48;;
21474;SDS011;10899;53.576;9.960;2022-09-21T07:51:33;2.10;;;0.98;;
21474;SDS011;10899;53.576;9.960;2022-09-21T07:54:01;1.33;;;1.20;;
21474;SDS011;10899;53.576;9.960;2022-09-21T07:56:29;2.40;;;1.15;;
21474;SDS011;10899;53.576;9.960;2022-09-21T07:58:55;2.55;;;1.30;;
21474;SDS011;10899;53.576;9.960;2022-09-21T08:01:35;3.97;;;1.25;;
21474;SDS011;10899;53.576;9.960;2022-09-21T08:04:02;3.72;;;1.50;;
21474;SDS011;10899;53.576;9.960;2022-09-21T08:06:29;1.30;;;1.20;;
21474;SDS011;10899;53.576;9.960;2022-09-21T08:09:00;3.38;;;1.55;;
21474;SDS011;10899;53.576;9.960;2022-09-21T08:11:27;3.05;;;1.40;;
21474;SDS011;10899;53.576;9.960;2022-09-21T08:13:55;2.03;;;1.10;;
21474;SDS011;10899;53.576;9.960;2022-09-21T08:16:22;2.08;;;1.30;;
21474;SDS011;10899;53.576;9.960;2022-09-21T08:18:49;1.13;;;1.00;;
21474;SDS011;10899;53.576;9.960;2022-09-21T08:21:16;3.05;;;1.17;;
21474;SDS011;10899;53.576;9.960;2022-09-21T08:23:44;1.98;;;1.17;;
21474;SDS011;10899;53.576;9.960;2022-09-21T08:26:13;2.03;;;1.27;;
21474;SDS011;10899;53.576;9.960;2022-09-21T08:28:56;2.22;;;1.25;;
21474;SDS011;10899;53.576;9.960;2022-09-21T08:31:23;1.63;;;1.00;;
21474;SDS011;10899;53.576;9.960;2022-09-21T08:33:51;1.75;;;1.10;;
21474;SDS011;10899;53.576;9.960;2022-09-21T08:36:18;2.80;;;1.30;;
21474;SDS011;10899;53.576;9.960;2022-09-21T08:38:44;1.58;;;0.85;;
21474;SDS011;10899;53.576;9.960;2022-09-21T08:41:16;2.60;;;1.27;;
21474;SDS011;10899;53.576;9.960;2022-09-21T08:43:46;2.10;;;1.25;;
21474;SDS011;10899;53.576;9.960;2022-09-21T08:46:15;1.80;;;1.20;;
21474;SDS011;10899;53.576;9.960;2022-09-21T08:48:45;2.25;;;1.30;;
21474;SDS011;10899;53.576;9.960;2022-09-21T08:51:15;1.35;;;0.93;;
21474;SDS011;10899;53.576;9.960;2022-09-21T08:53:44;3.40;;;1.38;;
21474;SDS011;10899;53.576;9.960;2022-09-21T08:56:12;2.85;;;1.23;;
21474;SDS011;10899;53.576;9.960;2022-09-21T08:58:39;1.27;;;0.95;;
21474;SDS011;10899;53.576;9.960;2022-09-21T09:03:58;2.25;;;1.10;;
21474;SDS011;10899;53.576;9.960;2022-09-21T09:09:05;1.55;;;1.08;;
21474;SDS011;10899;53.576;9.960;2022-09-21T09:19:42;2.15;;;1.15;;
21474;SDS011;10899;53.576;9.960;2022-09-21T09:22:11;2.53;;;1.30;;
21474;SDS011;10899;53.576;9.960;2022-09-21T09:24:42;2.63;;;1.35;;
21474;SDS011;10899;53.576;9.960;2022-09-21T09:27:12;3.13;;;1.20;;
21474;SDS011;10899;53.576;9.960;2022-09-21T09:32:22;1.42;;;1.20;;
21474;SDS011;10899;53.576;9.960;2022-09-21T09:34:58;2.38;;;0.90;;
21474;SDS011;10899;53.576;9.960;2022-09-21T09:37:29;3.42;;;1.38;;
21474;SDS011;10899;53.576;9.960;2022-09-21T09:39:58;3.03;;;1.20;;
21474;SDS011;10899;53.576;9.960;2022-09-21T09:47:49;2.35;;;1.20;;
21474;SDS011;10899;53.576;9.960;2022-09-21T09:50:29;2.92;;;1.02;;
21474;SDS011;10899;53.576;9.960;2022-09-21T09:53:05;5.00;;;1.65;;
21474;SDS011;10899;53.576;9.960;2022-09-21T09:55:39;2.35;;;1.10;;
21474;SDS011;10899;53.576;9.960;2022-09-21T09:58:18;2.50;;;1.38;;
21474;SDS011;10899;53.576;9.960;2022-09-21T10:00:46;3.45;;;1.40;;
21474;SDS011;10899;53.576;9.960;2022-09-21T10:03:17;3.03;;;1.30;;
21474;SDS011;10899;53.576;9.960;2022-09-21T10:05:44;4.38;;;0.95;;
21474;SDS011;10899;53.576;9.960;2022-09-21T10:08:39;7.47;;;1.30;;
21474;SDS011;10899;53.576;9.960;2022-09-21T10:11:01;3.10;;;1.33;;
21474;SDS011;10899;53.576;9.960;2022-09-21T10:13:28;3.42;;;1.30;;
21474;SDS011;10899;53.576;9.960;2022-09-21T10:15:56;2.30;;;1.00;;
21474;SDS011;10899;53.576;9.960;2022-09-21T10:18:25;3.15;;;1.13;;
21474;SDS011;10899;53.576;9.960;2022-09-21T10:23:28;1.73;;;1.30;;
21474;SDS011;10899;53.576;9.960;2022-09-21T10:25:57;1.65;;;1.05;;
21474;SDS011;10899;53.576;9.960;2022-09-21T10:28:24;1.85;;;1.20;;
21474;SDS011;10899;53.576;9.960;2022-09-21T10:33:34;2.22;;;1.17;;
21474;SDS011;10899;53.576;9.960;2022-09-21T10:36:20;2.55;;;0.93;;
21474;SDS011;10899;53.576;9.960;2022-09-21T10:38:49;1.60;;;1.15;;
21474;SDS011;10899;53.576;9.960;2022-09-21T10:41:17;2.58;;;1.20;;
21474;SDS011;10899;53.576;9.960;2022-09-21T10:43:43;2.33;;;0.93;;
21474;SDS011;10899;53.576;9.960;2022-09-21T10:46:10;2.38;;;1.38;;
21474;SDS011;10899;53.576;9.960;2022-09-21T10:48:37;2.13;;;1.02;;
21474;SDS011;10899;53.576;9.960;2022-09-21T10:51:03;2.78;;;1.33;;
21474;SDS011;10899;53.576;9.960;2022-09-21T10:53:33;3.50;;;1.08;;
21474;SDS011;10899;53.576;9.960;2022-09-21T10:56:05;1.60;;;1.00;;
21474;SDS011;10899;53.576;9.960;2022-09-21T10:58:32;2.40;;;1.08;;
21474;SDS011;10899;53.576;9.960;2022-09-21T11:01:09;1.20;;;1.08;;
21474;SDS011;10899;53.576;9.960;2022-09-21T11:06:05;3.70;;;1.13;;
21474;SDS011;10899;53.576;9.960;2022-09-21T11:08:36;1.55;;;1.00;;
21474;SDS011;10899;53.576;9.960;2022-09-21T11:13:35;2.80;;;1.05;;
21474;SDS011;10899;53.576;9.960;2022-09-21T11:23:47;2.92;;;0.90;;
21474;SDS011;10899;53.576;9.960;2022-09-21T11:26:23;1.55;;;0.80;;
21474;SDS011;10899;53.576;9.960;2022-09-21T11:34:07;1.55;;;1.15;;
21474;SDS011;10899;53.576;9.960;2022-09-21T11:36:54;2.83;;;1.10;;
21474;SDS011;10899;53.576;9.960;2022-09-21T11:44:43;3.45;;;1.20;;
21474;SDS011;10899;53.576;9.960;2022-09-21T11:52:37;1.75;;;1.02;;
21474;SDS011;10899;53.576;9.960;2022-09-21T11:57:42;2.22;;;1.10;;
21474;SDS011;10899;53.576;9.960;2022-09-21T12:00:13;2.05;;;1.38;;
21474;SDS011;10899;53.576;9.960;2022-09-21T12:15:40;2.08;;;1.02;;
21474;SDS011;10899;53.576;9.960;2022-09-21T12:20:47;1.98;;;0.98;;
21474;SDS011;10899;53.576;9.960;2022-09-21T12:23:30;1.38;;;0.80;;
21474;SDS011;10899;53.576;9.960;2022-09-21T12:25:58;2.95;;;1.10;;
21474;SDS011;10899;53.576;9.960;2022-09-21T12:28:28;1.73;;;1.00;;
21474;SDS011;10899;53.576;9.960;2022-09-21T12:31:00;1.50;;;0.90;;
21474;SDS011;10899;53.576;9.960;2022-09-21T12:33:34;2.05;;;0.90;;
21474;SDS011;10899;53.576;9.960;2022-09-21T12:36:07;1.17;;;0.90;;
21474;SDS011;10899;53.576;9.960;2022-09-21T12:46:44;1.58;;;1.00;;
21474;SDS011;10899;53.576;9.960;2022-09-21T12:49:17;2.17;;;0.90;;
21474;SDS011;10899;53.576;9.960;2022-09-21T12:51:55;1.23;;;0.95;;
21474;SDS011;10899;53.576;9.960;2022-09-21T12:54:32;1.80;;;0.90;;
21474;SDS011;10899;53.576;9.960;2022-09-21T12:59:35;2.50;;;1.15;;
21474;SDS011;10899;53.576;9.960;2022-09-21T13:02:28;2.35;;;0.90;;
21474;SDS011;10899;53.576;9.960;2022-09-21T13:08:00;3.83;;;1.20;;
21474;SDS011;10899;53.576;9.960;2022-09-21T13:10:54;2.28;;;1.10;;
21474;SDS011;10899;53.576;9.960;2022-09-21T13:13:24;2.28;;;1.00;;
21474;SDS011;10899;53.576;9.960;2022-09-21T13:15:51;1.17;;;1.00;;
21474;SDS011;10899;53.576;9.960;2022-09-21T13:18:20;2.83;;;1.10;;
21474;SDS011;10899;53.576;9.960;2022-09-21T13:20:47;2.83;;;1.00;;
21474;SDS011;10899;53.576;9.960;2022-09-21T13:23:31;1.05;;;0.95;;
21474;SDS011;10899;53.576;9.960;2022-09-21T13:26:07;2.40;;;1.17;;
21474;SDS011;10899;53.576;9.960;2022-09-21T13:36:28;3.60;;;0.95;;
21474;SDS011;10899;53.576;9.960;2022-09-21T13:38:57;3.08;;;1.10;;
21474;SDS011;10899;53.576;9.960;2022-09-21T13:41:29;2.47;;;1.00;;
21474;SDS011;10899;53.576;9.960;2022-09-21T13:44:00;1.23;;;0.90;;
21474;SDS011;10899;53.576;9.960;2022-09-21T13:51:49;1.77;;;0.95;;
21474;SDS011;10899;53.576;9.960;2022-09-21T13:54:16;4.28;;;1.20;;
21474;SDS011;10899;53.576;9.960;2022-09-21T13:56:43;2.15;;;0.88;;
21474;SDS011;10899;53.576;9.960;2022-09-21T13:59:19;3.10;;;1.20;;
21474;SDS011;10899;53.576;9.960;2022-09-21T14:01:46;3.92;;;1.10;;
21474;SDS011;10899;53.576;9.960;2022-09-21T14:04:26;3.85;;;1.10;;
21474;SDS011;10899;53.576;9.960;2022-09-21T14:06:54;3.25;;;1.20;;
21474;SDS011;10899;53.576;9.960;2022-09-21T14:09:33;2.67;;;1.20;;
21474;SDS011;10899;53.576;9.960;2022-09-21T14:12:06;1.65;;;1.13;;
21474;SDS011;10899;53.576;9.960;2022-09-21T14:14:35;1.88;;;1.15;;
21474;SDS011;10899;53.576;9.960;2022-09-21T14:17:44;4.40;;;1.38;;
21474;SDS011;10899;53.576;9.960;2022-09-21T14:25:14;1.73;;;0.88;;
21474;SDS011;10899;53.576;9.960;2022-09-21T14:27:41;1.40;;;1.10;;
21474;SDS011;10899;53.576;9.960;2022-09-21T14:30:19;2.58;;;1.13;;
21474;SDS011;10899;53.576;9.960;2022-09-21T14:35:14;1.75;;;0.90;;
21474;SDS011;10899;53.576;9.960;2022-09-21T14:37:49;2.97;;;1.00;;
21474;SDS011;10899;53.576;9.960;2022-09-21T14:40:18;3.15;;;0.95;;
21474;SDS011;10899;53.576;9.960;2022-09-21T14:42:47;4.32;;;0.88;;
21474;SDS011;10899;53.576;9.960;2022-09-21T14:45:15;1.80;;;1.08;;
21474;SDS011;10899;53.576;9.960;2022-09-21T14:52:53;3.80;;;1.10;;
21474;SDS011;10899;53.576;9.960;2022-09-21T14:55:30;1.65;;;0.90;;
21474;SDS011;10899;53.576;9.960;2022-09-21T15:00:39;2.35;;;1.17;;
21474;SDS011;10899;53.576;9.960;2022-09-21T15:05:54;2.53;;;1.15;;
21474;SDS011;10899;53.576;9.960;2022-09-21T15:11:26;1.98;;;0.82;;
21474;SDS011;10899;53.576;9.960;2022-09-21T15:21:42;1.67;;;0.90;;
21474;SDS011;10899;53.576;9.960;2022-09-21T15:26:42;3.83;;;1.17;;
21474;SDS011;10899;53.576;9.960;2022-09-21T15:29:11;3.80;;;1.27;;
21474;SDS011;10899;53.576;9.960;2022-09-21T15:31:42;4.10;;;1.23;;
21474;SDS011;10899;53.576;9.960;2022-09-21T15:34:11;2.78;;;0.98;;
21474;SDS011;10899;53.576;9.960;2022-09-21T15:36:38;5.80;;;1.23;;
21474;SDS011;10899;53.576;9.960;2022-09-21T15:39:06;5.28;;;1.45;;
21474;SDS011;10899;53.576;9.960;2022-09-21T15:41:44;3.53;;;1.40;;
21474;SDS011;10899;53.576;9.960;2022-09-21T15:46:39;6.40;;;2.03;;
21474;SDS011;10899;53.576;9.960;2022-09-21T15:49:13;5.18;;;1.50;;
21474;SDS011;10899;53.576;9.960;2022-09-21T15:51:42;4.80;;;1.30;;
21474;SDS011;10899;53.576;9.960;2022-09-21T15:54:17;9.85;;;1.65;;
21474;SDS011;10899;53.576;9.960;2022-09-21T15:56:45;5.25;;;1.38;;
21474;SDS011;10899;53.576;9.960;2022-09-21T15:59:15;3.95;;;1.20;;
21474;SDS011;10899;53.576;9.960;2022-09-21T16:01:49;7.28;;;1.45;;
21474;SDS011;10899;53.576;9.960;2022-09-21T16:04:18;8.93;;;1.98;;
21474;SDS011;10899;53.576;9.960;2022-09-21T16:07:03;5.60;;;1.80;;
21474;SDS011;10899;53.576;9.960;2022-09-21T16:14:48;6.88;;;1.52;;
21474;SDS011;10899;53.576;9.960;2022-09-21T16:17:19;8.43;;;1.92;;
21474;SDS011;10899;53.576;9.960;2022-09-21T16:22:20;6.18;;;1.67;;
21474;SDS011;10899;53.576;9.960;2022-09-21T16:24:50;9.00;;;1.63;;
21474;SDS011;10899;53.576;9.960;2022-09-21T16:27:20;3.92;;;1.40;;
21474;SDS011;10899;53.576;9.960;2022-09-21T16:29:48;7.47;;;1.95;;
21474;SDS011;10899;53.576;9.960;2022-09-21T16:34:45;5.85;;;1.88;;
21474;SDS011;10899;53.576;9.960;2022-09-21T16:39:51;4.18;;;1.50;;
21474;SDS011;10899;53.576;9.960;2022-09-21T16:42:19;3.50;;;1.35;;
21474;SDS011;10899;53.576;9.960;2022-09-21T16:44:45;3.97;;;1.60;;
21474;SDS011;10899;53.576;9.960;2022-09-21T16:47:22;4.88;;;1.70;;
21474;SDS011;10899;53.576;9.960;2022-09-21T16:49:50;6.00;;;1.67;;
21474;SDS011;10899;53.576;9.960;2022-09-21T16:52:24;4.90;;;1.40;;
21474;SDS011;10899;53.576;9.960;2022-09-21T16:54:52;5.22;;;1.70;;
21474;SDS011;10899;53.576;9.960;2022-09-21T16:57:24;5.75;;;1.98;;
21474;SDS011;10899;53.576;9.960;2022-09-21T16:59:51;6.78;;;1.35;;
21474;SDS011;10899;53.576;9.960;2022-09-21T17:02:17;4.32;;;1.92;;
21474;SDS011;10899;53.576;9.960;2022-09-21T17:04:44;3.60;;;1.42;;
21474;SDS011;10899;53.576;9.960;2022-09-21T17:07:12;5.82;;;1.80;;
21474;SDS011;10899;53.576;9.960;2022-09-21T17:09:40;13.23;;;1.90;;
21474;SDS011;10899;53.576;9.960;2022-09-21T17:12:15;12.38;;;1.92;;
21474;SDS011;10899;53.576;9.960;2022-09-21T17:14:42;10.10;;;1.88;;
21474;SDS011;10899;53.576;9.960;2022-09-21T17:19:36;4.82;;;1.48;;
21474;SDS011;10899;53.576;9.960;2022-09-21T17:22:05;7.05;;;2.15;;
21474;SDS011;10899;53.576;9.960;2022-09-21T17:24:32;4.72;;;1.75;;
21474;SDS011;10899;53.576;9.960;2022-09-21T17:26:59;4.95;;;1.73;;
21474;SDS011;10899;53.576;9.960;2022-09-21T17:29:26;5.63;;;1.77;;
21474;SDS011;10899;53.576;9.960;2022-09-21T17:31:53;4.90;;;1.63;;
21474;SDS011;10899;53.576;9.960;2022-09-21T17:34:21;4.00;;;1.70;;
21474;SDS011;10899;53.576;9.960;2022-09-21T17:36:48;13.23;;;1.73;;
21474;SDS011;10899;53.576;9.960;2022-09-21T17:39:15;5.10;;;1.67;;
21474;SDS011;10899;53.576;9.960;2022-09-21T17:41:48;4.75;;;1.85;;
21474;SDS011;10899;53.576;9.960;2022-09-21T17:46:45;4.15;;;1.42;;
21474;SDS011;10899;53.576;9.960;2022-09-21T17:49:16;3.08;;;1.40;;
21474;SDS011;10899;53.576;9.960;2022-09-21T17:51:43;5.88;;;1.50;;
21474;SDS011;10899;53.576;9.960;2022-09-21T17:54:28;3.58;;;1.58;;
21474;SDS011;10899;53.576;9.960;2022-09-21T17:59:34;3.15;;;1.30;;
21474;SDS011;10899;53.576;9.960;2022-09-21T18:02:16;5.07;;;1.73;;
21474;SDS011;10899;53.576;9.960;2022-09-21T18:04:43;4.78;;;1.63;;
21474;SDS011;10899;53.576;9.960;2022-09-21T18:07:11;4.35;;;1.75;;
21474;SDS011;10899;53.576;9.960;2022-09-21T18:09:38;4.82;;;1.58;;
21474;SDS011;10899;53.576;9.960;2022-09-21T18:14:47;5.15;;;1.80;;